Time;durP1;ratioP1;P1;durP2;ratioP2;P2;SDS_P1;SDS_P2;PMS_P1;PMS_P2;Temp;Humidity;BMP_temperature;BMP_pressure;BME280_temperature;BME280_humidity;BME280_pressure;Samples;Min_cycle;Max_cycle;Signal;HPM_P1;HPM_P2
2024/04/12 00:00:54;;;;;;;5.00;2.47;;;;;;;;;;5410969;26;20026;-73
2024/04/12 00:03:19;;;;;;;6.00;2.53;;;;;;;;;;5401972;26;20814;-73
2024/04/12 00:05:47;;;;;;;6.45;2.20;;;;;;;;;;5399326;26;20791;-73
2024/04/12 00:08:13;;;;;;;6.57;2.28;;;;;;;;;;5402458;26;20015;-73
2024/04/12 00:10:39;;;;;;;6.07;2.10;;;;;;;;;;5397248;26;20473;-73
2024/04/12 00:13:04;;;;;;;4.90;2.30;;;;;;;;;;5399762;26;20049;-74
2024/04/12 00:15:31;;;;;;;5.05;2.17;;;;;;;;;;5407504;26;20067;-73
2024/04/12 00:17:56;;;;;;;4.40;2.10;;;;;;;;;;5406727;26;20022;-74
2024/04/12 00:20:22;;;;;;;4.47;2.50;;;;;;;;;;5400857;26;20461;-74
2024/04/12 00:22:49;;;;;;;7.38;2.65;;;;;;;;;;5399219;26;20035;-74
2024/04/12 00:25:14;;;;;;;6.78;2.90;;;;;;;;;;5407396;26;19999;-74
2024/04/12 00:27:39;;;;;;;7.38;2.90;;;;;;;;;;5411111;26;20006;-74
2024/04/12 00:30:07;;;;;;;5.22;1.67;;;;;;;;;;5407396;26;19996;-74
2024/04/12 00:32:35;;;;;;;5.50;2.00;;;;;;;;;;5404635;26;20047;-73
2024/04/12 00:35:00;;;;;;;6.97;2.13;;;;;;;;;;5401440;26;20207;-74
2024/04/12 00:37:27;;;;;;;4.63;1.98;;;;;;;;;;5398022;26;19993;-74
2024/04/12 00:39:54;;;;;;;7.72;2.28;;;;;;;;;;5405851;26;20000;-74
2024/04/12 00:42:30;;;;;;;7.72;2.53;;;;;;;;;;5410121;26;20482;-74
2024/04/12 00:44:58;;;;;;;5.35;1.83;;;;;;;;;;5405345;26;20007;-74
2024/04/12 00:47:23;;;;;;;5.90;1.85;;;;;;;;;;5399477;26;20485;-74
2024/04/12 00:49:49;;;;;;;5.93;2.95;;;;;;;;;;5401880;26;20010;-74
2024/04/12 00:52:15;;;;;;;6.55;2.40;;;;;;;;;;5394154;26;20484;-74
2024/04/12 00:54:42;;;;;;;6.32;2.33;;;;;;;;;;5411244;26;19999;-74
2024/04/12 00:57:09;;;;;;;6.70;2.40;;;;;;;;;;5407564;26;20003;-73
2024/04/12 00:59:35;;;;;;;5.80;2.53;;;;;;;;;;5405899;26;20050;-73
2024/04/12 01:02:08;;;;;;;5.22;2.38;;;;;;;;;;5406659;26;20003;-74
2024/04/12 01:04:34;;;;;;;4.40;2.28;;;;;;;;;;5398887;26;20004;-74
2024/04/12 01:06:59;;;;;;;5.80;2.45;;;;;;;;;;5399342;26;20381;-74
2024/04/12 01:09:24;;;;;;;4.70;2.50;;;;;;;;;;5409175;26;20058;-74
2024/04/12 01:11:50;;;;;;;8.80;2.33;;;;;;;;;;5407942;26;20011;-74
2024/04/12 01:14:16;;;;;;;6.72;2.78;;;;;;;;;;5401245;26;20015;-74
2024/04/12 01:16:42;;;;;;;7.30;3.35;;;;;;;;;;5402851;26;20007;-74
2024/04/12 01:19:12;;;;;;;6.10;3.03;;;;;;;;;;5395380;26;20074;-74
2024/04/12 01:21:37;;;;;;;5.22;2.45;;;;;;;;;;5407544;26;20004;-74
2024/04/12 01:24:06;;;;;;;6.97;2.53;;;;;;;;;;5405984;26;20004;-74
2024/04/12 01:26:31;;;;;;;5.30;2.20;;;;;;;;;;5408538;26;20084;-74
2024/04/12 01:28:57;;;;;;;5.95;2.28;;;;;;;;;;5407100;26;20063;-74
2024/04/12 01:31:23;;;;;;;6.18;2.30;;;;;;;;;;5401289;26;19997;-74
2024/04/12 01:33:49;;;;;;;6.60;2.67;;;;;;;;;;5402415;26;20011;-71
2024/04/12 01:36:21;;;;;;;7.70;2.72;;;;;;;;;;5407912;26;20379;-73
2024/04/12 01:38:58;;;;;;;6.53;2.55;;;;;;;;;;5408679;26;20004;-73
2024/04/12 01:41:24;;;;;;;7.10;3.38;;;;;;;;;;5405741;26;20004;-73
2024/04/12 01:43:52;;;;;;;7.57;3.13;;;;;;;;;;5404525;26;20418;-73
2024/04/12 01:46:21;;;;;;;5.07;2.50;;;;;;;;;;5395786;26;20000;-73
2024/04/12 01:48:46;;;;;;;4.80;2.20;;;;;;;;;;5402277;26;20003;-73
2024/04/12 01:51:14;;;;;;;6.30;2.53;;;;;;;;;;5399271;26;20004;-73
2024/04/12 01:53:40;;;;;;;4.15;2.10;;;;;;;;;;5395918;26;20014;-74
2024/04/12 01:56:09;;;;;;;12.70;3.15;;;;;;;;;;5400211;26;19999;-73
2024/04/12 01:58:34;;;;;;;5.78;2.55;;;;;;;;;;5401942;26;20031;-73
2024/04/12 02:01:02;;;;;;;4.93;2.08;;;;;;;;;;5399627;26;20404;-73
2024/04/12 02:03:30;;;;;;;7.40;2.70;;;;;;;;;;5408237;26;20003;-73
2024/04/12 02:05:56;;;;;;;6.78;3.00;;;;;;;;;;5412285;26;20011;-73
2024/04/12 02:08:23;;;;;;;5.75;2.80;;;;;;;;;;5409255;26;20004;-73
2024/04/12 02:10:50;;;;;;;8.40;3.42;;;;;;;;;;5407295;26;20003;-73
2024/04/12 02:13:20;;;;;;;5.43;2.78;;;;;;;;;;5398805;26;20004;-73
2024/04/12 02:15:49;;;;;;;9.40;3.38;;;;;;;;;;5402467;26;20014;-73
2024/04/12 02:18:14;;;;;;;6.72;2.38;;;;;;;;;;5412720;26;20007;-73
2024/04/12 02:20:44;;;;;;;4.85;2.13;;;;;;;;;;5411179;26;20660;-73
2024/04/12 02:23:13;;;;;;;5.72;2.22;;;;;;;;;;5405587;26;20458;-73
2024/04/12 02:25:39;;;;;;;7.97;2.58;;;;;;;;;;5402542;26;20004;-73
2024/04/12 02:28:08;;;;;;;5.70;2.90;;;;;;;;;;5403332;26;20083;-73
2024/04/12 02:30:43;;;;;;;8.45;3.17;;;;;;;;;;5407750;26;20007;-73
2024/04/12 02:33:11;;;;;;;6.82;3.33;;;;;;;;;;5405397;26;20532;-74
2024/04/12 02:35:41;;;;;;;6.88;3.00;;;;;;;;;;5411241;26;20333;-73
2024/04/12 02:38:15;;;;;;;4.95;2.88;;;;;;;;;;5404887;26;20483;-73
2024/04/12 02:40:41;;;;;;;8.82;2.83;;;;;;;;;;5402791;26;20006;-73
2024/04/12 02:43:08;;;;;;;5.03;2.38;;;;;;;;;;5396770;26;20004;-73
2024/04/12 02:45:34;;;;;;;7.03;2.80;;;;;;;;;;5411724;26;20014;-73
2024/04/12 02:48:00;;;;;;;6.20;2.78;;;;;;;;;;5411517;26;20345;-73
2024/04/12 02:50:25;;;;;;;6.30;3.03;;;;;;;;;;5405556;26;20042;-73
2024/04/12 02:52:51;;;;;;;7.85;2.40;;;;;;;;;;5404356;26;19999;-73
2024/04/12 02:55:18;;;;;;;7.18;2.92;;;;;;;;;;5397585;26;20041;-73
2024/04/12 02:57:44;;;;;;;8.05;3.78;;;;;;;;;;5409872;26;20007;-73
2024/04/12 03:00:21;;;;;;;6.32;3.10;;;;;;;;;;5412726;26;20011;-73
2024/04/12 03:02:48;;;;;;;7.97;3.20;;;;;;;;;;5409547;26;20031;-73
2024/04/12 03:05:14;;;;;;;7.97;2.58;;;;;;;;;;5402788;26;20004;-73
2024/04/12 03:07:41;;;;;;;6.93;3.60;;;;;;;;;;5403077;26;20011;-74
2024/04/12 03:10:06;;;;;;;6.20;2.88;;;;;;;;;;5406855;26;20010;-73
2024/04/12 03:12:31;;;;;;;9.13;2.85;;;;;;;;;;5405175;26;20004;-73
2024/04/12 03:14:57;;;;;;;6.60;3.08;;;;;;;;;;5398466;26;19999;-73
2024/04/12 03:17:22;;;;;;;5.93;2.80;;;;;;;;;;5401336;26;20464;-73
2024/04/12 03:19:47;;;;;;;7.25;3.38;;;;;;;;;;5386939;26;20008;-73
2024/04/12 03:22:13;;;;;;;10.55;3.30;;;;;;;;;;5389234;26;20013;-73
2024/04/12 03:24:38;;;;;;;5.88;2.50;;;;;;;;;;5389381;26;20000;-73
2024/04/12 03:27:04;;;;;;;7.45;3.08;;;;;;;;;;5399292;26;20015;-73
2024/04/12 03:29:29;;;;;;;7.65;2.97;;;;;;;;;;5397176;26;20367;-73
2024/04/12 03:31:55;;;;;;;5.50;2.38;;;;;;;;;;5387891;26;20000;-73
2024/04/12 03:34:24;;;;;;;6.68;2.75;;;;;;;;;;5389818;26;19996;-73
2024/04/12 03:41:47;;;;;;;8.13;3.30;;;;;;;;;;5398029;26;20024;-73
2024/04/12 03:44:13;;;;;;;6.88;3.00;;;;;;;;;;5393444;26;20554;-73
2024/04/12 03:46:42;;;;;;;6.53;2.63;;;;;;;;;;5396562;26;20008;-73
2024/04/12 03:49:10;;;;;;;7.15;2.90;;;;;;;;;;5383611;26;20028;-73
2024/04/12 03:51:42;;;;;;;8.23;3.25;;;;;;;;;;5382260;26;20003;-73
2024/04/12 03:54:11;;;;;;;5.40;2.40;;;;;;;;;;5391591;26;20454;-73
2024/04/12 03:56:36;;;;;;;6.95;2.97;;;;;;;;;;5400721;26;20007;-73
2024/04/12 03:59:02;;;;;;;8.27;3.03;;;;;;;;;;5387480;26;20373;-73
2024/04/12 04:01:31;;;;;;;6.60;2.83;;;;;;;;;;5392648;26;20015;-73
2024/04/12 04:03:57;;;;;;;5.35;2.67;;;;;;;;;;5391737;26;20050;-73
2024/04/12 04:06:22;;;;;;;9.23;3.53;;;;;;;;;;5387984;26;19995;-73
2024/04/12 04:08:48;;;;;;;6.97;2.83;;;;;;;;;;5400370;26;20450;-73
2024/04/12 04:11:15;;;;;;;7.13;3.70;;;;;;;;;;5401617;26;20016;-73
2024/04/12 04:13:41;;;;;;;8.40;3.67;;;;;;;;;;5398756;26;20000;-73
2024/04/12 04:16:07;;;;;;;10.13;3.38;;;;;;;;;;5393634;26;20475;-73
2024/04/12 04:18:32;;;;;;;7.45;2.97;;;;;;;;;;5384830;26;20008;-73
2024/04/12 04:21:06;;;;;;;7.40;3.20;;;;;;;;;;5378979;26;20084;-73
2024/04/12 04:23:38;;;;;;;6.60;3.22;;;;;;;;;;5404354;26;20069;-73
2024/04/12 04:26:08;;;;;;;6.55;3.17;;;;;;;;;;5396353;26;20019;-74
2024/04/12 04:28:40;;;;;;;5.88;2.70;;;;;;;;;;5411198;26;20037;-73
2024/04/12 04:31:06;;;;;;;8.63;3.42;;;;;;;;;;5410401;26;20020;-74
2024/04/12 04:33:33;;;;;;;5.70;3.00;;;;;;;;;;5404894;26;20014;-73
2024/04/12 04:35:58;;;;;;;8.13;2.70;;;;;;;;;;5409614;26;20504;-73
2024/04/12 04:38:24;;;;;;;8.18;2.80;;;;;;;;;;5409269;26;20000;-73
2024/04/12 04:40:58;;;;;;;6.18;3.42;;;;;;;;;;5411746;26;19996;-73
2024/04/12 04:43:24;;;;;;;7.18;3.63;;;;;;;;;;5412234;26;20003;-74
2024/04/12 04:45:49;;;;;;;7.50;3.20;;;;;;;;;;5406038;26;20481;-73
2024/04/12 04:48:15;;;;;;;6.75;3.70;;;;;;;;;;5393527;26;19996;-74
2024/04/12 04:50:41;;;;;;;7.93;3.88;;;;;;;;;;5397306;26;20022;-73
2024/04/12 04:53:11;;;;;;;5.85;3.35;;;;;;;;;;5389683;26;20015;-73
2024/04/12 04:55:38;;;;;;;7.40;3.38;;;;;;;;;;5396019;26;20456;-73
2024/04/12 04:58:08;;;;;;;7.85;3.70;;;;;;;;;;5397323;26;19999;-73
2024/04/12 05:00:40;;;;;;;6.32;3.55;;;;;;;;;;5397530;26;19999;-73
2024/04/12 05:03:07;;;;;;;4.85;2.88;;;;;;;;;;5389024;26;20004;-73
2024/04/12 05:05:33;;;;;;;7.63;3.55;;;;;;;;;;5396789;26;20032;-73
2024/04/12 05:08:01;;;;;;;11.15;3.72;;;;;;;;;;5398509;26;20480;-73
2024/04/12 05:10:33;;;;;;;4.65;2.72;;;;;;;;;;5390971;26;20349;-73
2024/04/12 05:13:03;;;;;;;9.50;3.10;;;;;;;;;;5394753;26;20000;-73
2024/04/12 05:18:12;;;;;;;6.13;3.08;;;;;;;;;;5400805;26;19999;-73
2024/04/12 05:20:41;;;;;;;6.17;3.53;;;;;;;;;;5393967;26;19999;-73
2024/04/12 05:23:12;;;;;;;7.20;3.72;;;;;;;;;;5392871;26;20234;-73
2024/04/12 05:25:41;;;;;;;7.97;4.63;;;;;;;;;;5390185;26;20035;-73
2024/04/12 05:28:07;;;;;;;7.82;4.25;;;;;;;;;;5388967;26;20004;-73
2024/04/12 05:30:36;;;;;;;8.23;3.47;;;;;;;;;;5388353;26;20011;-73
2024/04/12 05:33:03;;;;;;;7.85;3.63;;;;;;;;;;5401551;26;20001;-73
2024/04/12 05:35:30;;;;;;;7.07;3.22;;;;;;;;;;5389630;26;20004;-73
2024/04/12 05:37:58;;;;;;;6.00;3.50;;;;;;;;;;5405681;26;20016;-73
2024/04/12 05:40:25;;;;;;;7.15;3.65;;;;;;;;;;5388909;26;20033;-73
2024/04/12 05:42:50;;;;;;;7.38;4.20;;;;;;;;;;5383869;26;20053;-73
2024/04/12 05:45:19;;;;;;;8.68;4.03;;;;;;;;;;5386475;26;20617;-73
2024/04/12 05:47:44;;;;;;;9.80;4.15;;;;;;;;;;5395768;26;20012;-73
2024/04/12 05:50:12;;;;;;;7.68;3.60;;;;;;;;;;5392458;26;20267;-73
2024/04/12 05:52:37;;;;;;;7.00;4.05;;;;;;;;;;5385714;26;20441;-73
2024/04/12 05:55:10;;;;;;;6.70;3.40;;;;;;;;;;5380284;26;20479;-73
2024/04/12 05:57:35;;;;;;;11.35;3.88;;;;;;;;;;5387692;26;20015;-73
2024/04/12 06:00:09;;;;;;;6.25;3.53;;;;;;;;;;5389886;26;20349;-71
2024/04/12 06:02:37;;;;;;;10.75;4.03;;;;;;;;;;5396663;26;20073;-71
2024/04/12 06:05:05;;;;;;;7.40;4.72;;;;;;;;;;5393748;26;20016;-72
2024/04/12 06:07:35;;;;;;;6.95;3.00;;;;;;;;;;5396438;26;20402;-71
2024/04/12 06:10:01;;;;;;;8.35;3.38;;;;;;;;;;5383523;26;20011;-71
2024/04/12 06:12:33;;;;;;;6.55;3.47;;;;;;;;;;5382399;26;20387;-71
2024/04/12 06:15:04;;;;;;;8.10;3.53;;;;;;;;;;5401735;26;20014;-71
2024/04/12 06:17:29;;;;;;;9.45;3.03;;;;;;;;;;5400836;26;20595;-72
2024/04/12 06:19:59;;;;;;;6.65;3.60;;;;;;;;;;5388139;26;19996;-71
2024/04/12 06:22:26;;;;;;;7.45;3.22;;;;;;;;;;5385937;26;20012;-71
2024/04/12 06:24:51;;;;;;;8.45;3.60;;;;;;;;;;5381129;26;20129;-71
2024/04/12 06:27:29;;;;;;;25.65;14.55;;;;;;;;;;5394610;26;20464;-71
2024/04/12 06:29:57;;;;;;;9.80;6.10;;;;;;;;;;5397972;26;20035;-71
2024/04/12 06:32:23;;;;;;;13.40;5.45;;;;;;;;;;5397754;26;20003;-71
2024/04/12 06:34:49;;;;;;;9.30;3.78;;;;;;;;;;5387423;26;20008;-72
2024/04/12 06:37:15;;;;;;;9.02;4.13;;;;;;;;;;5391401;26;19996;-71
2024/04/12 06:39:43;;;;;;;9.52;4.25;;;;;;;;;;5381122;26;20032;-71
2024/04/12 06:42:08;;;;;;;11.70;3.75;;;;;;;;;;5391933;26;20000;-71
2024/04/12 06:44:35;;;;;;;9.32;5.20;;;;;;;;;;5395107;26;19996;-71
2024/04/12 06:47:05;;;;;;;7.97;3.45;;;;;;;;;;5395269;26;20032;-72
2024/04/12 06:49:32;;;;;;;12.13;4.50;;;;;;;;;;5387103;26;20012;-72
2024/04/12 06:52:09;;;;;;;9.52;5.88;;;;;;;;;;5381917;26;20070;-71
2024/04/12 06:54:42;;;;;;;8.85;4.60;;;;;;;;;;5384689;26;20001;-71
2024/04/12 06:57:21;;;;;;;7.60;4.20;;;;;;;;;;5399383;26;20004;-71
2024/04/12 06:59:52;;;;;;;9.07;4.53;;;;;;;;;;5394905;26;20460;-71
2024/04/12 07:02:23;;;;;;;5.70;3.30;;;;;;;;;;5390607;26;20036;-72
2024/04/12 07:04:52;;;;;;;7.32;3.10;;;;;;;;;;5385973;26;20246;-71
2024/04/12 07:07:22;;;;;;;10.60;4.00;;;;;;;;;;5388130;26;20065;-71
2024/04/12 07:09:48;;;;;;;9.75;5.00;;;;;;;;;;5399238;26;19999;-71
2024/04/12 07:12:14;;;;;;;8.48;4.47;;;;;;;;;;5389651;26;20421;-71
2024/04/12 07:14:41;;;;;;;4.80;2.88;;;;;;;;;;5390548;26;20057;-71
2024/04/12 07:17:19;;;;;;;7.68;4.03;;;;;;;;;;5391466;26;20012;-71
2024/04/12 07:19:49;;;;;;;11.20;5.20;;;;;;;;;;5388291;26;20000;-71
2024/04/12 07:22:18;;;;;;;9.63;4.45;;;;;;;;;;5389288;26;20001;-71
2024/04/12 07:24:47;;;;;;;11.73;5.85;;;;;;;;;;5396476;26;20492;-71
2024/04/12 07:27:15;;;;;;;12.98;5.35;;;;;;;;;;5395254;26;20353;-71
2024/04/12 07:29:43;;;;;;;7.63;4.03;;;;;;;;;;5389137;26;20000;-71
2024/04/12 07:32:08;;;;;;;8.20;4.30;;;;;;;;;;5385872;26;20053;-71
2024/04/12 07:34:41;;;;;;;12.05;4.75;;;;;;;;;;5391433;26;20701;-71
2024/04/12 07:37:12;;;;;;;8.05;4.38;;;;;;;;;;5399414;26;20467;-71
2024/04/12 07:39:40;;;;;;;9.10;4.43;;;;;;;;;;5394939;26;20015;-71
2024/04/12 07:42:08;;;;;;;7.13;3.47;;;;;;;;;;5388132;26;20026;-71
2024/04/12 07:44:35;;;;;;;9.15;4.57;;;;;;;;;;5387352;26;20077;-71
2024/04/12 07:47:06;;;;;;;8.43;4.70;;;;;;;;;;5400541;26;20018;-72
2024/04/12 07:49:39;;;;;;;6.70;3.10;;;;;;;;;;5390251;26;20003;-72
2024/04/12 07:52:09;;;;;;;7.95;3.28;;;;;;;;;;5392741;26;20008;-71
2024/04/12 07:54:35;;;;;;;8.25;3.53;;;;;;;;;;5392418;26;20000;-71
2024/04/12 07:57:07;;;;;;;7.70;2.95;;;;;;;;;;5398637;26;20000;-72
2024/04/12 07:59:33;;;;;;;;;;;;;;;;;;5394117;26;20011;-71
2024/04/12 08:01:58;;;;;;;8.27;3.63;;;;;;;;;;5390104;26;19967;-71
2024/04/12 08:04:23;;;;;;;9.40;3.95;;;;;;;;;;5391129;26;20004;-71
2024/04/12 08:09:21;;;;;;;7.60;3.25;;;;;;;;;;5387526;26;20000;-72
2024/04/12 08:11:51;;;;;;;8.07;2.95;;;;;;;;;;5391464;26;20475;-72
2024/04/12 08:14:20;;;;;;;6.78;3.10;;;;;;;;;;5386360;26;20000;-71
2024/04/12 08:16:46;;;;;;;9.63;3.65;;;;;;;;;;5384471;26;20004;-72
2024/04/12 08:20:00;;;;;;;11.32;4.07;;;;;;;;;;5391726;26;20008;-71
2024/04/12 08:21:57;;;;;;;6.75;3.20;;;;;;;;;;5395339;26;20003;-72
2024/04/12 08:24:22;;;;;;;10.00;3.15;;;;;;;;;;5387742;26;20011;-71
2024/04/12 08:26:51;;;;;;;6.75;2.95;;;;;;;;;;5394005;26;20336;-72
2024/04/12 08:29:23;;;;;;;6.45;2.90;;;;;;;;;;5381623;26;20004;-72
2024/04/12 08:31:59;;;;;;;8.77;3.20;;;;;;;;;;5384110;26;19996;-71
2024/04/12 08:34:24;;;;;;;6.95;3.10;;;;;;;;;;5390982;26;20012;-71
2024/04/12 08:36:50;;;;;;;8.82;3.90;;;;;;;;;;5396056;26;20363;-71
2024/04/12 08:39:26;;;;;;;8.55;3.42;;;;;;;;;;5385957;26;20077;-71
2024/04/12 08:41:59;;;;;;;9.32;3.70;;;;;;;;;;5398225;26;20000;-72
2024/04/12 08:44:30;;;;;;;7.72;3.20;;;;;;;;;;5379248;26;20464;-71
2024/04/12 08:46:57;;;;;;;7.95;4.28;;;;;;;;;;5395563;26;20736;-71
2024/04/12 08:49:23;;;;;;;8.30;3.00;;;;;;;;;;5389270;26;20000;-71
2024/04/12 08:51:53;;;;;;;7.38;3.22;;;;;;;;;;5390922;26;20349;-71
2024/04/12 08:54:20;;;;;;;7.28;4.13;;;;;;;;;;5383594;26;20015;-72
2024/04/12 08:56:46;;;;;;;6.05;2.70;;;;;;;;;;5387082;26;19996;-71
2024/04/12 08:59:17;;;;;;;10.52;5.57;;;;;;;;;;5380113;26;20063;-71
2024/04/12 09:01:42;;;;;;;10.20;5.47;;;;;;;;;;5403057;26;20003;-71
2024/04/12 09:04:14;;;;;;;9.38;4.38;;;;;;;;;;5393041;26;20077;-72
2024/04/12 09:06:40;;;;;;;7.00;3.25;;;;;;;;;;5392677;26;20358;-72
2024/04/12 09:09:05;;;;;;;14.43;6.53;;;;;;;;;;5382413;26;20001;-71
2024/04/12 09:11:31;;;;;;;11.02;5.47;;;;;;;;;;5380368;26;19996;-71
2024/04/12 09:14:08;;;;;;;8.63;3.83;;;;;;;;;;5384617;26;20465;-72
2024/04/12 09:16:43;;;;;;;7.03;3.15;;;;;;;;;;5395666;26;20007;-72
2024/04/12 09:19:13;;;;;;;21.13;5.70;;;;;;;;;;5388696;26;20359;-71
2024/04/12 09:21:47;;;;;;;10.93;4.82;;;;;;;;;;5386205;26;20011;-72
2024/04/12 09:24:15;;;;;;;9.63;3.40;;;;;;;;;;5380613;26;20008;-71
2024/04/12 09:26:55;;;;;;;9.70;5.15;;;;;;;;;;5387110;26;20073;-72
2024/04/12 09:29:26;;;;;;;8.50;3.63;;;;;;;;;;5393258;26;20069;-72
2024/04/12 09:34:39;;;;;;;11.10;3.15;;;;;;;;;;5386859;26;20374;-71
2024/04/12 09:37:28;;;;;;;14.80;5.60;;;;;;;;;;5385386;26;20380;-71
2024/04/12 09:43:25;;;;;;;6.45;2.30;;;;;;;;;;5392831;26;20005;-72
2024/04/12 09:45:21;;;;;;;5.60;2.65;;;;;;;;;;5391969;26;20462;-71
2024/04/12 10:37:30;;;;;;;4.15;1.10;;;;;;;;;;5410367;26;19999;-72
2024/04/12 10:39:56;;;;;;;5.60;1.40;;;;;;;;;;5405561;26;20003;-72
2024/04/12 10:42:25;;;;;;;6.43;1.80;;;;;;;;;;5413105;26;20018;-71
2024/04/12 10:44:56;;;;;;;5.70;1.92;;;;;;;;;;5413055;26;20028;-72
2024/04/12 10:47:21;;;;;;;6.75;1.83;;;;;;;;;;5404626;26;20008;-72
2024/04/12 10:49:49;;;;;;;5.38;1.45;;;;;;;;;;5390073;26;20073;-72
2024/04/12 10:52:15;;;;;;;6.72;1.20;;;;;;;;;;5411428;26;20457;-72
2024/04/12 10:54:42;;;;;;;7.80;1.27;;;;;;;;;;5410777;26;20015;-72
2024/04/12 10:57:10;;;;;;;8.60;2.03;;;;;;;;;;5398871;26;20000;-72
2024/04/12 10:59:41;;;;;;;7.03;1.92;;;;;;;;;;5387158;26;20119;-72
2024/04/12 11:02:10;;;;;;;4.28;1.30;;;;;;;;;;5383872;26;20011;-72
2024/04/12 11:05:05;;;;;;;5.63;1.60;;;;;;;;;;5392677;26;20000;-72
2024/04/12 11:07:21;;;;;;;3.25;1.20;;;;;;;;;;5398924;26;19995;-72
2024/04/12 11:09:57;;;;;;;5.15;1.02;;;;;;;;;;5400055;26;20391;-72
2024/04/12 11:12:24;;;;;;;5.93;1.42;;;;;;;;;;5385837;26;19996;-72
2024/04/12 11:15:00;;;;;;;3.55;1.02;;;;;;;;;;5389805;26;19995;-72
2024/04/12 11:31:15;;;;;;;10.23;1.98;;;;;;;;;;5380410;26;20000;-73
2024/04/12 11:33:51;;;;;;;9.70;2.20;;;;;;;;;;5401937;26;20015;-72
2024/04/12 11:36:20;;;;;;;5.68;1.45;;;;;;;;;;5390827;26;20345;-72
2024/04/12 11:38:47;;;;;;;5.65;1.65;;;;;;;;;;5390490;26;20011;-72
2024/04/12 11:41:15;;;;;;;6.22;1.45;;;;;;;;;;5384347;26;20021;-72
2024/04/12 11:43:47;;;;;;;6.45;1.70;;;;;;;;;;5385393;26;20005;-72
2024/04/12 11:46:16;;;;;;;3.85;1.33;;;;;;;;;;5395156;26;20003;-72
2024/04/12 11:48:42;;;;;;;5.90;1.98;;;;;;;;;;5396279;26;19996;-72
2024/04/12 11:51:08;;;;;;;4.20;1.30;;;;;;;;;;5403345;26;20094;-72
2024/04/12 11:53:34;;;;;;;5.00;1.70;;;;;;;;;;5388507;26;20007;-72
2024/04/12 11:55:59;;;;;;;3.90;1.33;;;;;;;;;;5383431;26;20012;-72
2024/04/12 11:58:25;;;;;;;4.00;1.77;;;;;;;;;;5381662;26;20011;-72
2024/04/12 12:00:52;;;;;;;5.40;1.60;;;;;;;;;;5392143;26;20018;-72
2024/04/12 12:03:19;;;;;;;5.10;1.40;;;;;;;;;;5382936;26;20004;-73
2024/04/12 12:05:46;;;;;;;5.57;1.58;;;;;;;;;;5389745;26;20516;-72
2024/04/12 12:08:13;;;;;;;4.95;1.27;;;;;;;;;;5385199;26;20019;-73
2024/04/12 12:10:41;;;;;;;3.90;1.55;;;;;;;;;;5383548;26;20015;-73
2024/04/12 12:13:06;;;;;;;6.72;1.30;;;;;;;;;;5383755;26;20383;-72
2024/04/12 12:15:31;;;;;;;4.43;1.37;;;;;;;;;;5392761;26;20011;-73
2024/04/12 12:17:57;;;;;;;4.90;1.27;;;;;;;;;;5392872;26;20273;-73
2024/04/12 12:20:23;;;;;;;5.60;1.40;;;;;;;;;;5393698;26;20043;-72
2024/04/12 12:22:48;;;;;;;4.82;1.65;;;;;;;;;;5391070;26;20031;-73
2024/04/12 12:25:14;;;;;;;6.38;1.52;;;;;;;;;;5383817;26;20022;-72
2024/04/12 12:27:39;;;;;;;5.28;1.60;;;;;;;;;;5392560;26;20000;-72
2024/04/12 12:30:13;;;;;;;5.87;1.70;;;;;;;;;;5401356;26;20014;-72
2024/04/12 12:32:40;;;;;;;4.57;1.20;;;;;;;;;;5394804;26;20345;-72
2024/04/12 12:35:06;;;;;;;6.45;1.80;;;;;;;;;;5385541;26;20014;-73
2024/04/12 12:37:32;;;;;;;6.97;1.45;;;;;;;;;;5395328;26;20092;-72
2024/04/12 12:39:59;;;;;;;6.63;1.45;;;;;;;;;;5390526;26;20008;-72
2024/04/12 12:42:24;;;;;;;6.43;1.70;;;;;;;;;;5399222;26;20006;-72
2024/04/12 12:44:50;;;;;;;3.25;1.45;;;;;;;;;;5397535;26;20011;-72
2024/04/12 12:47:20;;;;;;;4.33;1.70;;;;;;;;;;5406692;26;20049;-72
2024/04/12 12:49:47;;;;;;;4.53;1.33;;;;;;;;;;5390414;26;20620;-72
2024/04/12 12:52:13;;;;;;;7.80;1.65;;;;;;;;;;5388841;26;20098;-72
2024/04/12 12:54:42;;;;;;;5.43;1.70;;;;;;;;;;5386896;26;20398;-72
2024/04/12 12:57:08;;;;;;;2.35;1.30;;;;;;;;;;5392881;26;20928;-72
2024/04/12 12:59:40;;;;;;;4.55;1.92;;;;;;;;;;5393481;26;20015;-72
2024/04/12 13:02:06;;;;;;;7.03;1.95;;;;;;;;;;5392315;26;20483;-72
2024/04/12 13:04:33;;;;;;;3.63;1.30;;;;;;;;;;5388586;26;20008;-73
2024/04/12 13:07:00;;;;;;;6.60;1.52;;;;;;;;;;5396471;26;20000;-72
2024/04/12 13:09:25;;;;;;;4.53;1.42;;;;;;;;;;5378339;26;20004;-72
2024/04/12 13:11:50;;;;;;;14.00;1.90;;;;;;;;;;5395442;26;20011;-73
2024/04/12 13:14:17;;;;;;;4.50;1.25;;;;;;;;;;5390496;26;20032;-73
2024/04/12 13:16:43;;;;;;;5.50;1.58;;;;;;;;;;5394152;26;19996;-72
2024/04/12 13:19:15;;;;;;;5.90;1.80;;;;;;;;;;5394416;26;19996;-72
2024/04/12 13:21:40;;;;;;;4.90;1.50;;;;;;;;;;5391320;26;20452;-73
2024/04/12 13:24:07;;;;;;;4.87;1.70;;;;;;;;;;5404270;26;20018;-72
2024/04/12 13:26:33;;;;;;;4.25;1.48;;;;;;;;;;5394043;26;20227;-73
2024/04/12 13:28:59;;;;;;;4.28;1.65;;;;;;;;;;5402211;26;20513;-73
2024/04/12 13:31:25;;;;;;;3.58;1.10;;;;;;;;;;5404564;26;20003;-72
2024/04/12 13:33:56;;;;;;;4.53;1.48;;;;;;;;;;5409849;26;20048;-72
2024/04/12 13:36:21;;;;;;;3.60;1.10;;;;;;;;;;5403336;26;20000;-72
2024/04/12 13:38:50;;;;;;;4.82;1.50;;;;;;;;;;5413765;26;20394;-73
2024/04/12 13:41:15;;;;;;;4.95;1.38;;;;;;;;;;5392969;26;20007;-72
2024/04/12 13:43:45;;;;;;;4.20;1.30;;;;;;;;;;5392037;26;20012;-72
2024/04/12 13:51:39;;;;;;;7.90;1.50;;;;;;;;;;5384077;26;20366;-72
2024/04/12 13:54:08;;;;;;;6.07;1.60;;;;;;;;;;5394183;26;20077;-72
2024/04/12 13:56:34;;;;;;;5.47;1.38;;;;;;;;;;5400700;26;20000;-72
2024/04/12 13:58:59;;;;;;;5.93;1.35;;;;;;;;;;5402358;26;20484;-72
2024/04/12 14:01:24;;;;;;;4.28;1.50;;;;;;;;;;5384632;26;20072;-73
2024/04/12 14:03:53;;;;;;;4.30;1.87;;;;;;;;;;5389701;26;20004;-73
2024/04/12 14:06:23;;;;;;;3.70;1.23;;;;;;;;;;5393811;26;20046;-73
2024/04/12 14:08:48;;;;;;;3.17;1.40;;;;;;;;;;5403815;26;20031;-73
2024/04/12 14:11:13;;;;;;;4.85;1.50;;;;;;;;;;5388926;26;19996;-73
2024/04/12 14:13:39;;;;;;;4.30;1.43;;;;;;;;;;5402339;26;20066;-73
2024/04/12 14:16:04;;;;;;;5.90;1.80;;;;;;;;;;5390195;26;20001;-72
2024/04/12 14:18:29;;;;;;;4.72;1.25;;;;;;;;;;5390924;26;20070;-73
2024/04/12 14:20:55;;;;;;;8.48;1.40;;;;;;;;;;5399550;26;20060;-73
2024/04/12 14:23:22;;;;;;;4.32;1.75;;;;;;;;;;5401434;26;20011;-73
2024/04/12 14:25:48;;;;;;;5.57;1.60;;;;;;;;;;5401104;26;20466;-73
2024/04/12 14:28:14;;;;;;;3.33;1.10;;;;;;;;;;5395729;26;20000;-73
2024/04/12 14:30:39;;;;;;;6.78;1.20;;;;;;;;;;5390112;26;20609;-73
2024/04/12 14:33:05;;;;;;;6.83;1.10;;;;;;;;;;5394202;26;20011;-73
2024/04/12 14:35:30;;;;;;;3.17;1.33;;;;;;;;;;5407366;26;20014;-73
2024/04/12 14:37:55;;;;;;;3.63;1.37;;;;;;;;;;5410379;26;20234;-72
2024/04/12 14:40:21;;;;;;;4.33;1.00;;;;;;;;;;5398780;26;20011;-73
2024/04/12 14:42:47;;;;;;;3.33;1.20;;;;;;;;;;5391907;26;20246;-73
2024/04/12 14:45:12;;;;;;;5.90;1.30;;;;;;;;;;5381678;26;20504;-73
2024/04/12 14:47:40;;;;;;;4.22;1.60;;;;;;;;;;5390904;26;20003;-72
2024/04/12 14:50:07;;;;;;;5.65;1.40;;;;;;;;;;5394337;26;20014;-73
2024/04/12 14:52:33;;;;;;;3.80;1.50;;;;;;;;;;5396630;26;19999;-73
2024/04/12 14:54:58;;;;;;;5.15;1.30;;;;;;;;;;5388086;26;20337;-73
2024/04/12 14:57:23;;;;;;;4.15;1.35;;;;;;;;;;5393443;26;20075;-73
2024/04/12 14:59:49;;;;;;;4.60;1.27;;;;;;;;;;5395602;26;19997;-73
2024/04/12 15:02:15;;;;;;;2.75;1.10;;;;;;;;;;5403960;26;20757;-72
2024/04/12 15:48:25;;;;;;;5.25;1.05;;;;;;;;;;5400044;26;20001;-73
2024/04/12 15:50:54;;;;;;;4.38;0.70;;;;;;;;;;5388491;26;20014;-73
2024/04/12 15:53:25;;;;;;;3.50;1.15;;;;;;;;;;5382405;26;20472;-73
2024/04/12 16:11:55;;;;;;;4.18;1.20;;;;;;;;;;5391877;26;20007;-73
2024/04/12 16:14:20;;;;;;;5.38;1.10;;;;;;;;;;5390506;26;20046;-73
2024/04/12 16:16:48;;;;;;;4.20;1.10;;;;;;;;;;5390209;26;20014;-73
2024/04/12 16:19:14;;;;;;;3.42;0.90;;;;;;;;;;5393125;26;20665;-73
2024/04/12 16:21:39;;;;;;;3.85;0.90;;;;;;;;;;5382539;26;20043;-73
2024/04/12 16:24:04;;;;;;;5.22;1.17;;;;;;;;;;5385628;26;19999;-73
2024/04/12 16:26:29;;;;;;;2.67;1.00;;;;;;;;;;5390903;26;20004;-73
2024/04/12 16:28:55;;;;;;;2.63;0.90;;;;;;;;;;5401956;26;20014;-73
2024/04/12 16:31:20;;;;;;;3.00;1.00;;;;;;;;;;5385672;26;20238;-73
2024/04/12 16:33:45;;;;;;;2.88;1.00;;;;;;;;;;5391401;26;20633;-73
2024/04/12 16:36:10;;;;;;;2.60;0.90;;;;;;;;;;5380180;26;20010;-73
2024/04/12 16:38:36;;;;;;;3.40;1.10;;;;;;;;;;5393177;26;20452;-73
2024/04/12 16:41:02;;;;;;;4.47;1.37;;;;;;;;;;5396110;26;20073;-72
2024/04/12 16:43:27;;;;;;;4.70;1.02;;;;;;;;;;5394322;26;20287;-73
2024/04/12 16:45:52;;;;;;;6.00;1.00;;;;;;;;;;5388180;26;19996;-73
2024/04/12 16:48:17;;;;;;;2.83;1.20;;;;;;;;;;5393023;26;20870;-73
2024/04/12 16:50:42;;;;;;;4.60;1.20;;;;;;;;;;5379325;26;19996;-72
2024/04/12 16:53:08;;;;;;;4.70;1.10;;;;;;;;;;5390029;26;20041;-73
2024/04/12 16:55:33;;;;;;;3.05;0.85;;;;;;;;;;5396562;26;20000;-72
2024/04/12 16:57:59;;;;;;;4.20;1.13;;;;;;;;;;5398698;26;20007;-72
2024/04/12 17:00:26;;;;;;;3.28;0.93;;;;;;;;;;5384100;26;20036;-72
2024/04/12 17:02:51;;;;;;;2.88;0.77;;;;;;;;;;5390703;26;20014;-72
2024/04/12 17:05:19;;;;;;;4.65;0.93;;;;;;;;;;5390009;26;20003;-72
2024/04/12 17:07:45;;;;;;;1.65;0.60;;;;;;;;;;5403007;26;20019;-73
2024/04/12 17:10:11;;;;;;;3.38;0.70;;;;;;;;;;5401771;26;20281;-72